Time;durP1;ratioP1;P1;durP2;ratioP2;P2;SDS_P1;SDS_P2;PMS_P1;PMS_P2;Temp;Humidity;BMP_temperature;BMP_pressure;BME280_temperature;BME280_humidity;BME280_pressure;Samples;Min_cycle;Max_cycle;Signal;HPM_P1;HPM_P2
2023/02/10 00:01:22;;;;;;;48.97;29.13;;;-4.10;86.50;;;-4.99;80.94;99756.47;5068569;28;20952;-71
2023/02/10 00:03:50;;;;;;;47.90;29.20;;;-4.20;87.50;;;-4.89;81.10;99773.59;5091937;27;20474;-70
2023/02/10 00:06:20;;;;;;;53.63;29.60;;;-4.20;88.00;;;-4.96;80.87;99766.88;5088940;27;20482;-73
2023/02/10 00:08:48;;;;;;;52.07;30.63;;;-4.20;87.80;;;-5.12;81.50;99743.03;5077958;28;20512;-72
2023/02/10 00:11:16;;;;;;;47.30;28.77;;;-4.10;88.40;;;-5.51;81.50;99684.25;5076008;28;20683;-71
2023/02/10 00:13:43;;;;;;;56.53;28.43;;;-4.20;88.00;;;-5.03;81.79;99752.28;5085162;28;21005;-73
2023/02/10 00:16:15;;;;;;;50.10;29.27;;;-4.20;88.10;;;-5.05;81.46;99760.25;5078943;28;20458;-71
2023/02/10 00:18:42;;;;;;;52.03;31.07;;;-4.20;88.00;;;-5.15;81.37;99754.56;5074945;28;20463;-70
2023/02/10 00:21:14;;;;;;;49.03;28.83;;;-4.20;88.20;;;-5.15;82.22;99766.91;5076561;28;20478;-71
2023/02/10 00:23:42;;;;;;;55.90;31.07;;;-4.30;88.90;;;-5.03;81.48;99760.19;5072132;28;20490;-71
2023/02/10 00:26:13;;;;;;;48.77;29.07;;;-4.20;88.40;;;-5.28;81.87;99746.41;5071004;28;20445;-70
2023/02/10 00:28:40;;;;;;;52.50;30.70;;;-4.30;88.60;;;-5.18;81.88;99762.63;5076476;28;20462;-70
2023/02/10 00:31:09;;;;;;;54.80;31.57;;;-4.40;89.40;;;-5.18;81.94;99767.91;5072989;28;20498;-70
2023/02/10 00:33:37;;;;;;;54.83;29.90;;;-4.40;89.50;;;-5.25;81.87;99761.19;5055303;28;20445;-71
2023/02/10 00:36:06;;;;;;;52.30;30.03;;;-4.50;88.50;;;-5.28;81.75;99769.25;5075271;28;20469;-69
2023/02/10 00:38:33;;;;;;;55.10;31.40;;;-4.50;89.30;;;-5.66;82.06;99698.97;5067732;28;20468;-71
2023/02/10 00:41:04;;;;;;;55.90;31.90;;;-4.50;90.30;;;-5.29;82.06;99765.78;5072852;28;20516;-71
2023/02/10 00:43:31;;;;;;;65.37;32.33;;;-4.50;90.10;;;-5.32;82.12;99780.88;5075408;28;20483;-69
2023/02/10 00:45:58;;;;;;;47.03;29.83;;;-4.60;90.10;;;-5.33;82.08;99787.06;5064637;28;20447;-71
2023/02/10 00:48:26;;;;;;;48.17;29.13;;;-4.60;90.30;;;-5.45;82.33;99781.44;5078967;28;21253;-70
2023/02/10 00:50:54;;;;;;;55.87;31.70;;;-4.60;90.20;;;-5.45;82.54;99794.59;5070093;28;20458;-72
2023/02/10 00:53:22;;;;;;;48.00;27.87;;;-4.50;90.10;;;-5.48;82.65;99773.66;5071355;28;20493;-72
2023/02/10 00:55:49;;;;;;;64.97;33.83;;;-4.60;89.40;;;-5.49;82.91;99769.31;5075040;28;20482;-71
2023/02/10 00:58:17;;;;;;;56.10;30.40;;;-4.60;90.10;;;-5.47;82.64;99782.41;5078242;28;20452;-71
2023/02/10 01:00:44;;;;;;;58.13;30.60;;;-4.60;90.20;;;-5.48;82.60;99791.25;5068751;28;20461;-70
2023/02/10 01:03:11;;;;;;;55.30;34.87;;;-4.70;90.20;;;-5.45;82.68;99781.44;5073563;28;21008;-69
2023/02/10 01:05:39;;;;;;;54.87;30.50;;;-4.70;90.20;;;-5.62;82.61;99779.53;5089861;27;20528;-70
2023/02/10 01:08:07;;;;;;;53.40;31.70;;;-4.80;90.20;;;-5.65;82.99;99779.69;5075350;28;20468;-71
2023/02/10 01:10:36;;;;;;;53.47;31.30;;;-4.90;90.40;;;-5.56;82.48;99786.31;5073153;28;20471;-71
2023/02/10 01:13:03;;;;;;;54.47;31.17;;;-4.90;90.60;;;-5.65;82.61;99794.66;5074120;28;20782;-71
2023/02/10 01:15:31;;;;;;;54.50;31.30;;;-4.90;90.60;;;-5.73;83.14;99793.19;5072242;28;20469;-71
2023/02/10 01:17:58;;;;;;;60.50;31.53;;;-4.90;90.60;;;-5.73;83.14;99797.63;5069035;28;20539;-70
2023/02/10 01:20:26;;;;;;;61.67;30.73;;;-4.90;91.00;;;-5.72;83.00;99792.28;5077157;28;20459;-70
2023/02/10 01:22:54;;;;;;;58.00;33.13;;;-5.00;90.50;;;-5.77;82.89;99793.41;5073820;28;20896;-71
2023/02/10 01:25:22;;;;;;;54.80;32.03;;;-5.00;90.90;;;-5.89;83.30;99793.03;5071479;28;21093;-71
2023/02/10 01:27:49;;;;;;;57.00;31.00;;;-5.00;91.40;;;-5.72;82.93;99802.81;5077184;28;20532;-70
2023/02/10 01:30:17;;;;;;;57.90;33.07;;;-5.00;91.30;;;-5.77;82.93;99806.56;5083814;28;20513;-69
2023/02/10 01:32:44;;;;;;;60.03;32.90;;;-5.00;90.70;;;-6.26;83.40;99734.97;5088460;28;20549;-70
2023/02/10 01:35:11;;;;;;;63.83;34.43;;;-5.10;91.20;;;-5.76;83.35;99801.25;5087086;28;20494;-70
2023/02/10 01:37:40;;;;;;;66.90;32.37;;;-5.00;91.50;;;-5.85;83.29;99799.00;5074155;28;20462;-69
2023/02/10 01:40:09;;;;;;;56.60;30.80;;;-5.10;91.10;;;-5.77;83.45;99803.94;5067552;28;20441;-70
2023/02/10 01:42:42;;;;;;;59.90;32.43;;;-5.00;91.80;;;-5.84;83.56;99801.59;5079369;28;21119;-70
2023/02/10 01:45:28;;;;;;;56.97;34.33;;;-5.10;91.40;;;-6.32;83.27;99732.59;5066901;28;20980;-70
2023/02/10 01:47:57;;;;;;;63.20;33.20;;;-5.10;91.40;;;-5.90;83.42;99806.25;5070760;28;21118;-70
2023/02/10 01:50:28;;;;;;;55.20;31.60;;;-5.10;91.10;;;-6.11;83.80;99803.66;5074046;28;20476;-72
2023/02/10 01:52:57;;;;;;;61.17;32.47;;;-5.20;91.20;;;-5.92;83.74;99813.38;5070969;28;20454;-71
2023/02/10 01:55:29;;;;;;;61.23;32.43;;;-5.10;91.80;;;-5.92;83.63;99818.63;5070773;28;20893;-68
2023/02/10 01:57:57;;;;;;;63.37;32.30;;;-5.20;91.50;;;-5.94;83.62;99807.31;5073661;28;20499;-70
2023/02/10 02:00:26;;;;;;;56.07;30.87;;;-5.20;91.90;;;-6.00;83.72;99825.06;5086810;28;20545;-71
2023/02/10 02:02:54;;;;;;;57.47;32.50;;;-5.30;91.60;;;-6.58;83.65;99731.94;5067032;28;21021;-69
2023/02/10 02:05:31;;;;;;;58.37;33.80;;;-5.30;92.50;;;-6.09;83.95;99800.94;5065195;28;20461;-70
2023/02/10 02:08:03;;;;;;;57.40;31.00;;;-5.30;92.40;;;-6.06;83.47;99806.94;5067118;28;21969;-71
2023/02/10 02:10:57;;;;;;;66.93;34.03;;;-5.30;92.50;;;-6.06;84.18;99806.94;5084842;27;20450;-69
2023/02/10 02:13:40;;;;;;;58.07;32.20;;;-5.30;92.20;;;-6.10;83.90;99810.66;5073331;28;20444;-71
2023/02/10 02:16:19;;;;;;;58.83;31.13;;;-5.30;92.20;;;-6.07;83.98;99809.63;5083956;28;20575;-70
2023/02/10 02:18:57;;;;;;;60.13;33.63;;;-5.30;92.10;;;-6.02;83.96;99803.25;5084697;28;20440;-70
2023/02/10 02:21:57;;;;;;;59.30;31.70;;;-5.20;92.10;;;-6.05;83.79;99792.03;5075396;28;20916;-70
2023/02/10 02:24:44;;;;;;;56.40;31.07;;;-5.20;92.00;;;-6.15;84.19;99797.69;5079660;28;20482;-70
2023/02/10 02:27:53;;;;;;;56.80;30.60;;;-5.30;91.90;;;-6.15;84.32;99802.06;5097088;28;20454;-67
2023/02/10 02:31:12;;;;;;;62.13;32.07;;;-5.30;91.70;;;-6.15;83.96;99804.69;5075937;28;20462;-70
2023/02/10 02:33:44;;;;;;;55.23;30.83;;;-5.30;92.10;;;-6.15;84.27;99817.84;5086069;28;20445;-71
2023/02/10 02:36:18;;;;;;;58.13;31.60;;;-5.30;92.00;;;-6.19;84.23;99818.91;5080721;28;20481;-70
2023/02/10 02:38:45;;;;;;;65.40;31.37;;;-5.40;91.70;;;-6.29;83.72;99816.69;5081554;28;20933;-71
2023/02/10 02:41:12;;;;;;;55.27;30.23;;;-5.40;91.50;;;-6.51;84.83;99816.72;5077297;28;20457;-69
2023/02/10 02:43:41;;;;;;;57.70;32.47;;;-5.50;91.60;;;-6.33;84.53;99830.88;5084537;28;20498;-69
2023/02/10 02:46:16;;;;;;;55.13;30.47;;;-5.50;92.50;;;-6.33;84.40;99830.88;5078268;28;20521;-71
2023/02/10 02:48:59;;;;;;;57.73;30.50;;;-5.50;91.90;;;-6.37;84.21;99838.94;5078994;28;20957;-71
2023/02/10 02:51:39;;;;;;;58.17;31.00;;;-5.50;91.60;;;-6.34;83.74;99844.94;5077668;28;20457;-70
2023/02/10 02:54:17;;;;;;;53.40;31.37;;;-5.40;91.40;;;-6.37;83.75;99839.81;5076788;28;20515;-70
2023/02/10 02:56:50;;;;;;;53.90;29.63;;;-5.50;91.20;;;-6.48;84.19;99821.84;5081911;28;20452;-71
2023/02/10 02:59:24;;;;;;;50.50;29.67;;;-5.60;91.30;;;-6.41;84.43;99830.34;5083791;28;21135;-71
2023/02/10 03:01:57;;;;;;;60.60;32.60;;;-5.60;92.20;;;-6.34;83.88;99836.22;5096669;28;20460;-71
2023/02/10 03:04:30;;;;;;;62.13;31.20;;;-5.60;91.90;;;-7.09;83.99;99718.25;5079775;28;20584;-69
2023/02/10 03:06:57;;;;;;;56.70;31.93;;;-5.70;92.20;;;-6.42;84.64;99839.16;5085751;28;20468;-71
2023/02/10 03:09:25;;;;;;;62.97;34.33;;;-5.70;92.80;;;-6.45;84.46;99831.38;5076644;28;20459;-69
2023/02/10 03:11:52;;;;;;;62.40;32.40;;;-5.60;92.90;;;-6.47;84.91;99836.72;5084499;28;20457;-70
2023/02/10 03:14:19;;;;;;;58.10;33.10;;;-5.60;93.30;;;-6.54;84.87;99827.34;5093401;28;20462;-70
2023/02/10 03:16:46;;;;;;;62.50;34.23;;;-5.60;92.60;;;-6.45;84.66;99831.38;5109556;28;20952;-69
2023/02/10 03:19:14;;;;;;;63.20;32.80;;;-5.60;92.30;;;-6.45;83.96;99826.97;5093663;28;20465;-70
2023/02/10 03:21:43;;;;;;;61.00;33.57;;;-5.60;91.90;;;-6.51;84.42;99831.63;5087190;28;20449;-70
2023/02/10 03:24:10;;;;;;;54.57;31.60;;;-5.60;92.10;;;-6.55;84.31;99836.16;5076896;28;20705;-69
2023/02/10 03:26:38;;;;;;;57.80;32.87;;;-5.70;91.80;;;-6.55;84.38;99831.75;5086850;28;20461;-70
2023/02/10 03:29:06;;;;;;;58.20;30.10;;;-5.70;91.80;;;-6.55;84.52;99826.50;5083190;28;20541;-71
2023/02/10 03:31:33;;;;;;;69.63;35.27;;;-5.70;91.90;;;-7.03;84.03;99753.94;5081414;28;20471;-69
2023/02/10 03:34:00;;;;;;;60.70;33.43;;;-5.60;91.80;;;-6.58;84.40;99828.38;5079735;28;20989;-69
2023/02/10 03:36:28;;;;;;;64.30;32.20;;;-5.70;91.90;;;-6.59;84.40;99830.19;5082886;28;20445;-69
2023/02/10 03:38:56;;;;;;;56.17;31.63;;;-5.70;91.80;;;-6.48;84.22;99828.88;5079609;28;20456;-69
2023/02/10 03:41:24;;;;;;;53.77;32.10;;;-5.60;91.80;;;-6.59;84.10;99834.56;5081240;28;20456;-69
2023/02/10 03:43:51;;;;;;;56.30;30.50;;;-5.70;91.30;;;-6.57;83.97;99833.59;5092793;28;20462;-71
2023/02/10 03:46:22;;;;;;;55.60;31.30;;;-5.70;91.60;;;-6.68;84.46;99825.28;5083573;28;20696;-70
2023/02/10 03:48:49;;;;;;;57.33;31.80;;;-5.70;91.30;;;-6.59;84.22;99831.94;5084361;28;21016;-70
2023/02/10 03:51:16;;;;;;;59.37;33.80;;;-5.70;91.40;;;-6.73;84.04;99816.72;5074581;28;20859;-72
2023/02/10 03:53:43;;;;;;;56.90;33.00;;;-5.70;91.10;;;-6.57;84.12;99835.34;5093946;28;21000;-70
2023/02/10 03:56:12;;;;;;;61.50;32.77;;;-5.80;91.40;;;-6.57;83.61;99833.59;5079053;28;20457;-71
2023/02/10 03:58:39;;;;;;;59.90;32.43;;;-5.70;91.40;;;-7.06;84.14;99767.19;5083671;28;20456;-71
2023/02/10 04:01:12;;;;;;;57.60;34.37;;;-5.70;91.20;;;-6.66;84.83;99847.09;5077228;28;20473;-69
2023/02/10 04:03:40;;;;;;;61.77;33.00;;;-5.70;91.60;;;-6.70;84.26;99845.53;5084160;28;20911;-70
2023/02/10 04:06:08;;;;;;;61.47;33.90;;;-5.70;91.50;;;-6.59;84.49;99843.31;5079811;28;20960;-70
2023/02/10 04:08:36;;;;;;;66.07;31.60;;;-5.70;91.30;;;-6.62;83.77;99845.22;5071296;28;20533;-68
2023/02/10 04:11:03;;;;;;;67.97;33.30;;;-5.70;91.30;;;-6.65;83.87;99846.19;5076306;28;20462;-71
2023/02/10 04:13:32;;;;;;;66.07;32.53;;;-5.80;90.90;;;-6.60;83.67;99848.63;5075563;28;20549;-70
2023/02/10 04:16:05;;;;;;;60.40;32.27;;;-5.80;91.10;;;-6.53;83.75;99857.97;5070754;28;20490;-69
2023/02/10 04:18:34;;;;;;;59.53;34.70;;;-5.80;91.10;;;-6.62;83.68;99856.56;5066734;28;20442;-68
2023/02/10 04:21:02;;;;;;;62.50;34.20;;;-5.80;91.40;;;-6.56;83.27;99861.59;5067956;28;20463;-68
2023/02/10 04:23:30;;;;;;;70.87;34.03;;;-5.80;90.90;;;-6.61;83.36;99868.81;5069901;28;20506;-69
2023/02/10 04:25:58;;;;;;;64.63;33.63;;;-5.90;91.30;;;-6.60;83.22;99875.78;5081114;28;20548;-71
2023/02/10 04:28:26;;;;;;;59.90;32.63;;;-5.90;91.40;;;-6.78;83.69;99880.00;5069989;28;22689;-71
2023/02/10 04:30:56;;;;;;;61.10;34.27;;;-5.90;91.10;;;-6.76;84.17;99885.19;5073250;28;20460;-69
2023/02/10 04:33:24;;;;;;;59.90;33.67;;;-6.00;91.30;;;-7.25;83.59;99799.44;5070418;28;20449;-69
2023/02/10 04:35:52;;;;;;;61.07;33.57;;;-6.00;91.50;;;-6.90;83.89;99870.81;5069404;28;20479;-70
2023/02/10 04:38:20;;;;;;;77.00;36.33;;;-6.00;91.60;;;-6.70;83.89;99890.22;5068588;28;20520;-69
2023/02/10 04:40:47;;;;;;;64.33;35.40;;;-5.90;91.80;;;-6.75;83.54;99892.16;5067882;28;20481;-70
2023/02/10 04:43:15;;;;;;;66.83;37.13;;;-5.90;91.40;;;-6.76;84.00;99893.06;5069795;28;20462;-70
2023/02/10 04:45:42;;;;;;;65.30;32.80;;;-5.90;90.70;;;-6.88;84.56;99886.53;5067936;28;20501;-72
2023/02/10 04:48:11;;;;;;;57.43;31.10;;;-6.00;90.70;;;-6.98;84.15;99891.28;5068453;28;20514;-70
2023/02/10 04:50:39;;;;;;;64.10;33.97;;;-6.00;90.70;;;-6.95;84.45;99896.41;5077657;28;20469;-68
2023/02/10 04:53:07;;;;;;;58.43;34.17;;;-6.00;91.10;;;-6.98;83.87;99892.09;5070682;28;20550;-71
2023/02/10 04:55:35;;;;;;;64.97;32.60;;;-6.00;91.00;;;-7.02;84.15;99903.66;5071857;28;20453;-70
2023/02/10 04:58:02;;;;;;;63.37;33.60;;;-6.10;91.10;;;-6.99;84.51;99894.81;5070845;28;20449;-68
2023/02/10 05:00:29;;;;;;;63.27;33.13;;;-6.00;91.30;;;-7.07;84.25;99886.34;5072787;28;20547;-69
2023/02/10 05:02:57;;;;;;;57.40;34.30;;;-6.10;91.10;;;-7.34;83.85;99839.19;5071398;28;20469;-70
2023/02/10 05:05:27;;;;;;;59.13;33.10;;;-6.10;91.00;;;-6.95;84.06;99898.19;5073203;28;20475;-69
2023/02/10 05:07:54;;;;;;;68.03;33.10;;;-6.10;91.20;;;-7.00;83.88;99901.00;5075633;28;20462;-71
2023/02/10 05:10:22;;;;;;;60.80;31.90;;;-6.10;91.00;;;-6.99;83.88;99906.16;5072996;28;20456;-71
2023/02/10 05:12:50;;;;;;;64.17;36.23;;;-6.10;91.10;;;-7.06;84.61;99903.81;5074970;28;20488;-71
2023/02/10 05:15:17;;;;;;;68.40;33.70;;;-6.10;90.80;;;-7.09;84.11;99909.19;5070632;28;20532;-70
2023/02/10 05:17:44;;;;;;;64.23;33.37;;;-6.10;91.00;;;-7.16;84.23;99905.94;5075900;28;20450;-72
2023/02/10 05:20:13;;;;;;;58.97;32.87;;;-6.10;90.80;;;-7.24;84.51;99893.09;5081533;28;20453;-71
2023/02/10 05:22:42;;;;;;;64.37;31.30;;;-6.10;91.00;;;-7.19;84.15;99887.66;5080577;28;20977;-73
2023/02/10 05:25:10;;;;;;;61.97;34.80;;;-6.20;90.50;;;-7.16;83.99;99900.69;5082606;28;20580;-71
2023/02/10 05:27:38;;;;;;;67.13;34.10;;;-6.20;90.30;;;-7.15;84.19;99894.53;5076830;28;20448;-74
2023/02/10 05:30:09;;;;;;;71.60;34.50;;;-6.20;90.60;;;-7.23;83.83;99879.03;5087568;28;20928;-70
2023/02/10 05:32:36;;;;;;;68.03;35.50;;;-6.20;90.60;;;-7.21;84.03;99889.50;5087733;28;21158;-70
2023/02/10 05:35:04;;;;;;;55.07;32.57;;;-6.20;90.70;;;-7.09;84.21;99896.94;5097037;28;20465;-71
2023/02/10 05:37:31;;;;;;;59.13;31.30;;;-6.20;90.70;;;-7.21;84.13;99906.09;5085675;28;20449;-70
2023/02/10 05:40:00;;;;;;;62.03;32.03;;;-6.20;90.70;;;-7.15;83.83;99915.53;5079544;28;21217;-70
2023/02/10 05:42:27;;;;;;;64.70;32.67;;;-6.30;90.70;;;-7.02;83.39;99913.34;5081001;28;20461;-69
2023/02/10 05:44:54;;;;;;;67.33;34.20;;;-6.20;90.90;;;-7.35;83.58;99898.75;5075588;28;20473;-70
2023/02/10 05:47:22;;;;;;;62.67;34.10;;;-6.20;90.10;;;-7.22;83.86;99922.78;5071331;28;20956;-71
2023/02/10 05:49:49;;;;;;;66.77;34.80;;;-6.30;90.30;;;-7.21;84.22;99926.28;5068341;28;20469;-71
2023/02/10 05:52:16;;;;;;;56.93;31.40;;;-6.30;90.30;;;-7.32;83.95;99935.41;5073858;28;20470;-72
2023/02/10 05:54:44;;;;;;;62.20;32.10;;;-6.30;90.40;;;-7.22;83.64;99935.06;5070677;28;20462;-69
2023/02/10 05:57:12;;;;;;;65.17;34.63;;;-6.30;90.60;;;-7.26;84.32;99926.44;5082209;28;20456;-68
2023/02/10 05:59:41;;;;;;;63.20;33.93;;;-6.30;90.70;;;-7.29;83.60;99922.16;5082927;28;20869;-68
2023/02/10 06:02:08;;;;;;;55.87;32.13;;;-6.30;90.50;;;-7.24;83.86;99916.72;5079171;28;20546;-67
2023/02/10 06:04:36;;;;;;;62.10;33.40;;;-6.30;90.60;;;-7.27;84.20;99927.34;5068935;28;20476;-67
2023/02/10 06:07:03;;;;;;;61.90;33.13;;;-6.30;90.50;;;-7.18;84.07;99926.16;5064438;28;20521;-68
2023/02/10 06:09:30;;;;;;;66.83;32.60;;;-6.20;90.30;;;-7.22;83.84;99938.53;5064071;28;20522;-69
2023/02/10 06:11:57;;;;;;;60.17;32.43;;;-6.20;90.30;;;-7.18;83.96;99937.53;5065068;28;20461;-69
2023/02/10 06:14:27;;;;;;;62.43;32.30;;;-6.20;90.40;;;-7.23;83.77;99943.88;5066012;28;22578;-68
2023/02/10 06:16:54;;;;;;;68.10;33.00;;;-6.30;90.10;;;-7.30;83.34;99943.22;5063936;28;20460;-68
2023/02/10 06:19:21;;;;;;;68.07;33.37;;;-6.30;90.10;;;-7.06;83.79;99953.75;5068851;28;20951;-68
2023/02/10 06:21:49;;;;;;;62.93;34.10;;;-6.20;90.80;;;-7.06;83.74;99959.88;5070289;28;20971;-69
2023/02/10 06:24:16;;;;;;;70.67;34.17;;;-6.20;90.70;;;-7.13;83.71;99967.13;5074139;28;20524;-68
2023/02/10 06:26:43;;;;;;;61.60;34.23;;;-6.20;90.40;;;-6.98;83.19;99960.44;5072787;28;20456;-67
2023/02/10 06:29:11;;;;;;;68.47;33.90;;;-6.20;90.30;;;-7.04;83.04;99921.25;5069176;28;20550;-68
2023/02/10 06:31:40;;;;;;;68.30;34.27;;;-6.00;91.10;;;-6.86;82.78;99956.53;5064516;28;20471;-68
2023/02/10 06:34:08;;;;;;;64.30;34.57;;;-6.00;89.90;;;-6.96;83.35;99957.78;5079411;28;20460;-70
2023/02/10 06:36:35;;;;;;;57.87;32.63;;;-6.00;89.50;;;-7.00;82.40;99969.31;5072850;28;20475;-67
2023/02/10 06:39:02;;;;;;;62.70;36.00;;;-6.00;88.20;;;-7.07;82.69;99980.94;5071209;28;20442;-68
2023/02/10 06:41:29;;;;;;;60.10;31.53;;;-6.10;87.90;;;-7.19;82.97;99991.00;5072221;28;20555;-70
2023/02/10 06:43:57;;;;;;;59.87;34.40;;;-6.10;88.10;;;-7.14;83.16;99989.06;5074287;28;20841;-70
2023/02/10 06:46:25;;;;;;;65.20;36.57;;;-6.20;88.70;;;-7.07;83.56;99988.84;5081850;28;20468;-70
2023/02/10 06:48:54;;;;;;;73.33;33.53;;;-6.10;88.90;;;-7.07;83.37;100001.97;5068670;28;20477;-69
2023/02/10 06:51:22;;;;;;;58.50;33.73;;;-6.10;88.90;;;-6.97;83.12;100003.38;5073899;28;20480;-71
2023/02/10 06:53:49;;;;;;;64.00;33.50;;;-6.00;88.80;;;-6.86;82.83;99984.56;5081462;28;20454;-70
2023/02/10 06:56:17;;;;;;;60.03;30.77;;;-5.90;88.80;;;-6.68;81.83;100004.09;5069750;28;20446;-70
2023/02/10 06:58:44;;;;;;;58.57;32.73;;;-5.80;87.40;;;-6.83;82.01;100009.00;5072112;28;20480;-70
2023/02/10 07:01:14;;;;;;;59.50;32.87;;;-5.90;85.60;;;-6.78;81.79;100010.59;5072146;28;21212;-70
2023/02/10 07:03:41;;;;;;;55.40;31.90;;;-5.90;85.60;;;-6.80;81.38;100012.41;5073841;28;20658;-69
2023/02/10 07:06:10;;;;;;;56.27;32.27;;;-5.90;85.30;;;-7.03;81.94;100008.88;5068715;28;21049;-68
2023/02/10 07:08:37;;;;;;;61.50;31.17;;;-6.00;85.10;;;-6.77;81.65;100009.69;5094088;28;20459;-69
2023/02/10 07:11:05;;;;;;;63.50;34.00;;;-5.90;86.00;;;-6.86;81.53;100001.22;5095419;28;20449;-66
2023/02/10 07:13:32;;;;;;;65.33;33.73;;;-5.90;85.30;;;-6.67;81.64;100011.06;5084523;28;20518;-67
2023/02/10 07:15:59;;;;;;;60.70;31.70;;;-5.80;85.60;;;-6.62;80.68;100003.84;5080764;28;20446;-67
2023/02/10 07:18:27;;;;;;;55.80;31.47;;;-5.70;84.40;;;-6.56;81.09;100010.66;5073822;28;20463;-70
2023/02/10 07:20:54;;;;;;;65.40;32.80;;;-5.70;84.50;;;-6.63;80.96;100002.13;5073822;28;20445;-70
2023/02/10 07:23:23;;;;;;;56.73;32.63;;;-5.70;83.30;;;-6.43;80.24;100003.19;5076386;28;20437;-69
2023/02/10 07:25:50;;;;;;;44.43;27.53;;;-5.60;83.30;;;-6.50;80.37;99993.78;5065323;28;20479;-76
2023/02/10 07:28:18;;;;;;;53.37;29.67;;;-5.60;82.80;;;-6.45;80.54;100003.22;5077750;28;20463;-69
2023/02/10 07:30:45;;;;;;;54.77;29.33;;;-5.60;83.10;;;-6.36;80.22;99994.13;5077481;28;20481;-69
2023/02/10 07:33:12;;;;;;;54.30;31.87;;;-5.50;83.40;;;-6.24;80.13;99991.94;5080463;28;20461;-67
2023/02/10 07:35:39;;;;;;;61.13;31.83;;;-5.40;83.00;;;-6.04;79.43;99999.06;5078734;28;20529;-68
2023/02/10 07:38:07;;;;;;;64.00;34.93;;;-5.30;83.00;;;-6.10;79.64;99997.53;5079627;28;20547;-68
2023/02/10 07:40:35;;;;;;;64.93;33.57;;;-5.20;81.80;;;-6.10;79.57;99992.25;5075542;28;20495;-68
2023/02/10 07:43:02;;;;;;;55.67;30.90;;;-5.20;81.90;;;-5.98;79.78;100004.91;5082228;28;20445;-67
2023/02/10 07:45:31;;;;;;;59.97;32.10;;;-5.10;82.40;;;-5.98;79.44;99999.63;5073066;28;20529;-68
2023/02/10 07:47:59;;;;;;;61.23;33.90;;;-5.10;81.90;;;-5.97;79.32;100001.34;5074561;28;21156;-68
2023/02/10 07:50:27;;;;;;;56.53;33.87;;;-5.00;81.40;;;-6.13;80.23;99980.06;5071465;28;20770;-68
2023/02/10 07:52:54;;;;;;;53.00;31.13;;;-5.10;81.80;;;-5.62;79.39;100000.81;5072690;28;20457;-69
2023/02/10 07:55:22;;;;;;;53.20;30.93;;;-4.90;82.90;;;-5.92;78.50;99914.25;5073354;28;20943;-69
2023/02/10 07:57:52;;;;;;;58.47;33.63;;;-4.70;82.00;;;-5.27;77.75;99993.22;5076870;28;20777;-70
2023/02/10 08:00:20;;;;;;;56.77;32.27;;;-4.60;80.50;;;-5.26;77.55;99996.69;5079150;28;20981;-67
2023/02/10 08:02:47;;;;;;;55.47;33.57;;;-4.50;79.50;;;-5.37;77.55;99996.31;5076595;28;20489;-67
2023/02/10 08:05:14;;;;;;;52.87;32.17;;;-4.50;78.90;;;-5.36;77.53;100000.66;5072804;28;20469;-67
2023/02/10 08:07:41;;;;;;;59.67;31.73;;;-4.50;78.80;;;-5.23;77.46;100001.84;5094142;28;20507;-67
2023/02/10 08:10:09;;;;;;;60.60;34.73;;;-4.40;79.30;;;-5.06;77.12;99998.47;5077858;28;20559;-67
2023/02/10 08:12:36;;;;;;;55.27;34.13;;;-4.30;79.20;;;-5.14;77.21;100004.06;5077203;28;20463;-67
2023/02/10 08:15:07;;;;;;;58.97;33.07;;;-4.30;78.70;;;-5.08;77.06;100010.00;5070675;28;20847;-67
2023/02/10 08:17:34;;;;;;;54.83;31.10;;;-4.30;78.70;;;-4.97;77.21;100005.13;5075717;28;20465;-66
2023/02/10 08:20:01;;;;;;;56.10;31.63;;;-4.20;79.10;;;-4.78;76.66;100012.22;5077148;28;20450;-67
2023/02/10 08:22:29;;;;;;;57.83;31.23;;;-4.20;79.50;;;-4.78;76.17;100009.56;5098242;28;20452;-67
2023/02/10 08:24:56;;;;;;;53.13;32.57;;;-4.10;78.80;;;-4.99;76.55;99989.38;5085797;28;20470;-67
2023/02/10 08:27:23;;;;;;;64.13;34.00;;;-4.10;78.40;;;-4.66;76.52;100016.94;5083740;28;20459;-67
2023/02/10 08:29:50;;;;;;;59.47;32.73;;;-4.00;78.40;;;-4.61;76.65;100016.75;5076236;28;20469;-68
2023/02/10 08:32:19;;;;;;;53.37;32.40;;;-3.90;78.50;;;-4.35;76.01;100019.97;5081199;28;20506;-67
2023/02/10 08:34:47;;;;;;;55.83;33.60;;;-3.70;78.80;;;-4.23;75.89;100018.53;5068241;28;20480;-68
2023/02/10 08:37:15;;;;;;;67.43;31.67;;;-3.60;78.70;;;-4.41;76.10;100036.94;5076864;28;20462;-69
2023/02/10 08:39:42;;;;;;;60.10;32.57;;;-3.60;77.70;;;-4.32;75.76;100031.25;5073228;28;20459;-69
2023/02/10 08:42:10;;;;;;;54.87;32.87;;;-3.50;77.50;;;-4.80;76.16;99962.19;5085358;28;20509;-72
2023/02/10 08:44:38;;;;;;;57.83;34.00;;;-3.50;77.60;;;-4.22;76.16;100028.19;5066485;28;20515;-68
2023/02/10 08:47:05;;;;;;;60.17;33.10;;;-3.40;77.80;;;-4.14;76.33;100031.31;5079457;28;20590;-69
2023/02/10 08:49:35;;;;;;;58.77;35.70;;;-3.30;77.70;;;-4.14;76.19;100024.25;5069385;28;20458;-70
2023/02/10 08:52:02;;;;;;;57.50;35.10;;;-3.30;77.40;;;-3.92;75.84;100027.66;5074595;28;20469;-68
2023/02/10 08:54:29;;;;;;;58.43;31.90;;;-3.10;77.60;;;-4.28;75.71;99985.31;5067311;28;20939;-69
2023/02/10 08:56:57;;;;;;;58.80;35.10;;;-3.10;77.20;;;-3.79;75.68;100033.19;5077371;28;20467;-69
2023/02/10 08:59:24;;;;;;;63.87;33.07;;;-3.00;77.30;;;-3.76;76.33;100028.63;5083090;28;20449;-68
2023/02/10 09:01:52;;;;;;;59.80;31.80;;;-2.90;77.70;;;-3.66;75.69;100034.31;5083752;28;20450;-67
2023/02/10 09:04:19;;;;;;;53.97;31.73;;;-2.80;77.30;;;-3.65;75.61;100027.25;5072325;28;21229;-67
2023/02/10 09:06:48;;;;;;;62.13;35.27;;;-2.80;77.30;;;-3.59;76.22;100034.88;5085694;27;20482;-67
2023/02/10 09:09:22;;;;;;;59.33;33.27;;;-2.80;77.40;;;-3.53;75.48;100021.38;5074116;28;20454;-67
2023/02/10 09:11:51;;;;;;;60.27;34.47;;;-2.60;77.20;;;-3.24;75.03;100045.50;5069099;28;20795;-66
2023/02/10 09:14:18;;;;;;;60.23;33.27;;;-2.50;77.10;;;-3.06;74.49;100050.78;5073106;28;20449;-67
2023/02/10 09:16:46;;;;;;;54.80;33.57;;;-2.40;77.00;;;-3.08;75.01;100044.72;5086071;27;20454;-67
2023/02/10 09:19:13;;;;;;;54.27;32.90;;;-2.30;76.90;;;-2.80;74.47;100059.19;5074412;28;20519;-69
2023/02/10 09:21:40;;;;;;;56.93;34.43;;;-2.10;76.50;;;-2.82;74.19;100055.72;5090057;27;20542;-67
2023/02/10 09:24:09;;;;;;;53.50;34.47;;;-2.10;76.10;;;-2.72;74.60;100062.25;5077587;28;20456;-66
2023/02/10 09:26:36;;;;;;;56.80;35.20;;;-2.00;76.00;;;-2.37;73.34;100046.28;5070961;28;20487;-67
2023/02/10 09:29:03;;;;;;;59.27;37.03;;;-1.80;76.40;;;-2.35;73.04;100052.38;5072719;28;20444;-68
2023/02/10 09:31:31;;;;;;;55.80;34.60;;;-1.70;75.60;;;-2.30;72.87;100063.56;5082607;28;20549;-67
2023/02/10 09:33:58;;;;;;;58.93;36.13;;;-1.60;75.50;;;-2.37;72.49;100062.19;5078704;28;20728;-64
2023/02/10 09:36:25;;;;;;;55.10;35.33;;;-1.50;75.10;;;-2.66;72.76;99966.66;5083414;28;20839;-67
2023/02/10 09:38:52;;;;;;;57.90;33.93;;;-1.50;75.20;;;-1.96;72.32;100050.28;5076136;28;21280;-66
2023/02/10 09:41:40;;;;;;;55.10;34.60;;;-1.30;75.40;;;-1.65;72.16;100055.66;5094450;28;20934;-67
2023/02/10 09:44:15;;;;;;;60.53;36.17;;;-1.10;76.60;;;-1.49;71.08;100050.34;5086789;28;20466;-66
2023/02/10 09:46:57;;;;;;;59.33;35.57;;;-0.90;75.10;;;-1.37;70.74;100054.06;5086739;28;20471;-67
2023/02/10 09:50:06;;;;;;;50.57;32.77;;;-0.80;74.30;;;-1.29;70.38;100062.44;5087524;28;20486;-67
2023/02/10 09:52:50;;;;;;;51.97;33.47;;;-0.70;74.30;;;-1.05;70.24;100051.31;5085206;28;20458;-67
2023/02/10 09:55:23;;;;;;;57.27;34.90;;;-0.60;74.00;;;-1.08;69.54;100056.81;5081224;28;20516;-66
2023/02/10 09:57:57;;;;;;;53.83;32.73;;;-0.40;73.50;;;-1.49;70.23;100043.22;5076423;28;20488;-66
2023/02/10 10:00:31;;;;;;;55.73;34.80;;;-0.50;72.90;;;-1.09;70.09;100055.13;5076401;28;20479;-67
2023/02/10 10:02:59;;;;;;;56.73;34.30;;;-0.50;73.70;;;-0.83;68.69;100058.88;5076965;28;20447;-66
2023/02/10 10:05:41;;;;;;;51.43;32.60;;;-0.30;73.20;;;-0.70;67.77;100051.00;5070268;28;20455;-70
2023/02/10 10:08:19;;;;;;;50.90;30.40;;;-0.10;72.70;;;-0.39;68.42;100048.28;5070601;28;20463;-69
2023/02/10 10:10:48;;;;;;;55.00;35.87;;;0.00;73.20;;;-0.35;66.96;100053.31;5066853;28;20458;-71
2023/02/10 10:13:24;;;;;;;53.27;36.90;;;0.10;72.40;;;-0.35;67.27;100053.31;5077604;28;20449;-69
2023/02/10 10:16:10;;;;;;;55.50;34.20;;;0.20;72.10;;;-0.08;66.55;100054.34;5067393;28;20522;-69